Dover, United Kingdom
Current Conditions -  °F | °C
As of 7:50 AM on Wednesday 26 Nov 2014 (Local Time) from EGMC Reporting Station
Light Rain Light Rain  
Wind Chill: 46°   Ceiling: 600
Heat Index: 46°   Visibility: 2.5mi
Dew Point: 45°   Wind: 1mph
Humidity: 93%   Direction: NA
Pressure: 29.88"   Gusts: NA
Location:  51.13°N, 1.31°E
Report Text: EGMC 260750Z VRB01KT 4000 -RA BR BKN006 OVC011 08/07 Q1012 RERA
Loading
Personal Weather Stations






























Interactive Weather Map New forecast layout! Learn more

10-Day Weather Forecast

Advertisements
Track Severe Weather on mobile